Time;durP1;ratioP1;P1;durP2;ratioP2;P2;SDS_P1;SDS_P2;PMS_P1;PMS_P2;Temp;Humidity;BMP_temperature;BMP_pressure;BME280_temperature;BME280_humidity;BME280_pressure;Samples;Min_cycle;Max_cycle;Signal;HPM_P1;HPM_P2
2023/10/01 00:00:26;;;;;;;6.07;4.30;;;;;;;14.62;61.57;98160.41;4837962;29;20681;-84
2023/10/01 00:02:52;;;;;;;7.78;4.63;;;;;;;14.39;61.73;98141.25;4839867;29;20243;-84
2023/10/01 00:05:17;;;;;;;8.52;4.45;;;;;;;14.36;61.88;98141.75;4813307;29;20702;-84
2023/10/01 00:07:43;;;;;;;8.23;4.53;;;;;;;14.34;62.25;98150.88;4863158;29;20079;-84
2023/10/01 00:10:10;;;;;;;8.00;4.85;;;;;;;14.36;61.74;98152.22;4837040;29;20194;-84
2023/10/01 00:12:50;;;;;;;6.68;4.38;;;;;;;14.43;61.66;98139.72;4852550;29;20154;-85
2023/10/01 00:15:21;;;;;;;7.20;3.92;;;;;;;14.45;61.59;98143.94;4857435;29;20209;-85
2023/10/01 00:17:50;;;;;;;7.63;4.22;;;;;;;14.46;61.36;98154.16;4841646;29;20230;-85
2023/10/01 00:20:18;;;;;;;7.82;4.55;;;;;;;14.45;62.38;98146.56;4846743;29;20230;-85
2023/10/01 00:22:45;;;;;;;9.18;4.13;;;;;;;14.46;61.67;98146.28;4860509;29;20250;-85
2023/10/01 00:25:10;;;;;;;7.05;4.68;;;;;;;14.44;61.50;98137.88;4860241;29;20162;-85
2023/10/01 00:27:37;;;;;;;7.10;4.15;;;;;;;14.34;61.70;98141.22;4827339;29;20216;-85
2023/10/01 00:30:06;;;;;;;6.40;4.07;;;;;;;14.44;61.76;98143.13;4841796;29;20367;-85
2023/10/01 00:32:31;;;;;;;6.78;4.05;;;;;;;14.26;61.64;98120.69;4859800;29;20268;-85
2023/10/01 00:35:03;;;;;;;7.05;4.20;;;;;;;14.33;62.09;98141.44;4826934;29;20183;-85
2023/10/01 00:37:28;;;;;;;6.47;4.05;;;;;;;14.22;61.90;98140.50;4857694;29;20226;-85
2023/10/01 00:40:14;;;;;;;7.00;4.40;;;;;;;14.06;62.21;98126.44;4859840;29;20225;-85
2023/10/01 00:42:39;;;;;;;7.55;4.57;;;;;;;14.11;63.39;98151.91;4826174;29;20185;-85
2023/10/01 00:45:07;;;;;;;7.47;4.32;;;;;;;13.97;62.73;98126.09;4859174;29;20175;-85
2023/10/01 00:47:34;;;;;;;6.38;4.40;;;;;;;14.15;62.44;98155.63;4843124;29;20174;-85
2023/10/01 00:50:00;;;;;;;8.40;4.75;;;;;;;14.15;63.19;98143.31;4878117;28;20276;-85
2023/10/01 00:52:25;;;;;;;7.38;4.75;;;;;;;14.14;63.50;98143.59;4865024;29;20166;-85
2023/10/01 00:54:51;;;;;;;8.75;4.80;;;;;;;14.14;63.69;98151.44;4828800;29;20272;-85
2023/10/01 00:57:17;;;;;;;8.50;4.72;;;;;;;14.20;63.68;98153.06;4848436;29;20246;-85
2023/10/01 00:59:45;;;;;;;6.82;4.32;;;;;;;14.23;63.78;98142.91;4863040;29;20208;-85
2023/10/01 01:02:15;;;;;;;8.55;4.35;;;;;;;14.21;63.91;98139.72;4848035;29;20189;-85
2023/10/01 01:04:44;;;;;;;8.82;4.40;;;;;;;14.27;64.03;98142.41;4834954;29;20158;-85
2023/10/01 01:07:19;;;;;;;7.15;4.28;;;;;;;14.18;63.46;98144.66;4835614;29;20182;-85
2023/10/01 01:09:45;;;;;;;7.15;4.78;;;;;;;13.94;62.99;98103.00;4864024;29;20083;-85
2023/10/01 01:12:12;;;;;;;6.95;4.30;;;;;;;14.16;63.96;98131.81;4862888;29;20173;-85
2023/10/01 01:14:38;;;;;;;5.80;3.97;;;;;;;14.02;63.42;98109.66;4862773;29;20185;-85
2023/10/01 01:17:04;;;;;;;8.93;4.40;;;;;;;14.13;64.45;98124.44;4867995;29;20158;-85
2023/10/01 01:19:30;;;;;;;8.55;4.35;;;;;;;14.16;63.20;98120.56;4837141;29;20278;-85
2023/10/01 01:21:56;;;;;;;6.60;4.47;;;;;;;14.19;62.75;98117.47;4854450;28;20160;-84
2023/10/01 01:24:24;;;;;;;6.97;4.70;;;;;;;14.21;63.09;98118.00;4845984;29;20193;-85
2023/10/01 01:26:51;;;;;;;5.53;3.90;;;;;;;14.13;62.08;98106.09;4831387;29;20221;-85
2023/10/01 01:29:29;;;;;;;8.48;5.28;;;;;;;14.26;62.25;98125.09;4854035;29;20194;-85
2023/10/01 01:32:06;;;;;;;9.00;4.35;;;;;;;14.15;62.17;98111.09;4854726;29;20164;-85
2023/10/01 01:34:35;;;;;;;7.28;4.43;;;;;;;14.08;62.39;98115.75;4860805;29;20177;-85
2023/10/01 01:37:06;;;;;;;7.00;4.53;;;;;;;14.05;62.37;98123.06;4867156;28;20257;-85
2023/10/01 01:39:51;;;;;;;7.32;4.53;;;;;;;14.11;62.80;98110.81;4837989;29;20201;-85
2023/10/01 01:42:21;;;;;;;;;;;;;;;14.18;61.78;98113.25;4855777;29;20155;-85
2023/10/01 01:45:15;;;;;;;11.80;4.85;;;;;;;14.08;62.28;98111.28;4865406;29;20076;-85
2023/10/01 01:47:39;;;;;;;6.35;4.20;;;;;;;14.01;62.87;98105.44;4852173;29;20194;-85
2023/10/01 01:50:19;;;;;;;;;;;;;;;;;;;;;
2023/10/01 01:52:51;;;;;;;8.38;4.90;;;;;;;14.07;61.48;98101.03;4849386;29;20251;-85
2023/10/01 01:55:26;;;;;;;7.25;4.40;;;;;;;14.04;61.96;98108.34;4866562;29;20209;-85
2023/10/01 01:58:08;;;;;;;7.97;3.90;;;;;;;14.03;62.52;98101.56;4851398;29;20106;-85
2023/10/01 02:00:35;;;;;;;7.28;5.25;;;;;;;14.05;61.67;98119.63;4833553;29;20111;-85
2023/10/01 02:03:05;;;;;;;7.63;4.53;;;;;;;14.07;62.46;98116.75;4864657;29;20300;-85
2023/10/01 02:05:34;;;;;;;7.40;4.47;;;;;;;14.07;62.35;98109.72;4837212;29;20190;-85
2023/10/01 02:08:06;;;;;;;6.95;4.22;;;;;;;13.84;62.48;98102.88;4843455;29;20212;-86
2023/10/01 02:10:44;;;;;;;6.55;4.13;;;;;;;13.94;62.73;98115.31;4863010;29;20194;-85
2023/10/01 02:13:12;;;;;;;6.03;3.65;;;;;;;13.76;63.36;98101.47;4866900;29;20198;-85
2023/10/01 02:15:37;;;;;;;6.80;4.35;;;;;;;13.75;62.58;98107.72;4867464;29;20167;-85
2023/10/01 02:18:09;;;;;;;8.32;4.45;;;;;;;13.77;63.69;98108.28;4869192;29;20158;-85
2023/10/01 02:20:40;;;;;;;6.55;4.28;;;;;;;13.78;63.67;98117.72;4882034;28;20202;-85
2023/10/01 02:28:16;;;;;;;8.20;4.73;;;;;;;13.85;63.41;98107.88;5914746;23;19917;-86
2023/10/01 02:30:42;;;;;;;5.53;4.38;;;;;;;13.95;62.55;98101.97;4852813;29;20071;-87
2023/10/01 02:33:20;;;;;;;7.15;4.80;;;;;;;13.96;62.57;98100.91;4965391;23;20232;-86
2023/10/01 02:35:48;;;;;;;7.97;4.38;;;;;;;14.08;62.95;98103.44;4867756;29;20189;-87
2023/10/01 02:43:34;;;;;;;;;;;;;;;14.23;61.96;98102.81;5406353;23;20202;-86
2023/10/01 02:46:04;;;;;;;7.32;4.72;;;;;;;14.03;62.51;98098.94;4836917;29;20164;-85
2023/10/01 02:48:30;;;;;;;8.23;4.93;;;;;;;13.99;63.19;98097.81;4829057;29;20201;-85
2023/10/01 02:50:55;;;;;;;9.38;4.93;;;;;;;14.04;62.50;98103.13;4811500;29;20269;-85
2023/10/01 02:53:22;;;;;;;6.60;4.75;;;;;;;13.93;63.50;98109.28;4832715;29;20292;-86
2023/10/01 02:55:51;;;;;;;7.30;4.45;;;;;;;13.87;63.19;98091.91;4824709;29;20190;-86
2023/10/01 02:58:19;;;;;;;6.60;4.20;;;;;;;13.85;62.72;98101.84;4840592;29;20701;-85
2023/10/01 03:00:45;;;;;;;6.70;4.60;;;;;;;13.89;62.88;98092.47;4796612;29;20214;-85
2023/10/01 03:03:17;;;;;;;6.85;4.20;;;;;;;13.94;63.07;98084.66;4820508;29;20387;-85
2023/10/01 03:05:46;;;;;;;8.15;4.43;;;;;;;13.95;62.79;98077.59;4807226;29;20111;-86
2023/10/01 03:08:40;;;;;;;6.82;4.13;;;;;;;13.87;62.55;98063.13;4819407;29;20293;-86
2023/10/01 03:11:04;;;;;;;8.80;5.10;;;;;;;13.94;61.84;98065.56;4820076;29;20763;-86
2023/10/01 03:13:31;;;;;;;7.10;4.72;;;;;;;13.87;61.82;98047.41;4801260;29;20390;-86
2023/10/01 03:18:44;;;;;;;6.30;4.47;;;;;;;13.83;61.50;98060.19;4815021;29;20266;-85
2023/10/01 03:22:08;;;;;;;6.30;4.38;;;;;;;13.87;61.57;98065.75;4822486;29;20107;-86
2023/10/01 03:24:08;;;;;;;9.43;5.22;;;;;;;13.80;61.94;98059.91;4822743;29;20226;-86
2023/10/01 03:26:34;;;;;;;7.32;4.43;;;;;;;13.75;61.85;98063.25;4798795;29;20214;-86
2023/10/01 03:29:17;;;;;;;5.20;3.65;;;;;;;13.62;62.32;98055.72;4816698;29;20323;-85
2023/10/01 03:31:46;;;;;;;5.97;4.43;;;;;;;13.64;62.15;98070.16;4799548;29;20179;-86
2023/10/01 03:34:28;;;;;;;7.05;4.47;;;;;;;13.63;62.52;98060.72;4820708;29;20201;-85
2023/10/01 03:37:00;;;;;;;6.95;4.35;;;;;;;13.67;63.01;98051.38;4799029;29;20702;-86
2023/10/01 03:39:26;;;;;;;8.07;4.25;;;;;;;13.60;62.48;98042.88;4818943;29;20107;-85
2023/10/01 03:41:53;;;;;;;6.00;4.57;;;;;;;13.69;62.74;98048.50;4804569;29;20258;-85
2023/10/01 03:44:40;;;;;;;8.00;5.10;;;;;;;13.59;62.98;98043.94;4800579;29;20120;-86
2023/10/01 03:47:04;;;;;;;6.45;4.75;;;;;;;13.54;63.62;98061.38;4814798;29;20310;-86
2023/10/01 03:49:33;;;;;;;7.20;4.47;;;;;;;13.46;63.84;98045.06;4806390;29;20175;-85
2023/10/01 03:51:59;;;;;;;7.65;4.90;;;;;;;13.53;64.32;98060.59;4815484;29;20285;-86
2023/10/01 04:30:35;;;;;;;7.63;4.00;;;;;;;13.57;62.99;98058.28;5235163;23;20088;-85
2023/10/01 04:33:16;;;;;;;7.15;4.00;;;;;;;13.59;62.91;98072.72;4858347;29;20225;-85
2023/10/01 04:35:51;;;;;;;9.00;4.25;;;;;;;13.51;63.55;98078.34;4863995;28;20184;-85
2023/10/01 05:04:41;;;;;;;7.43;5.30;;;;;;;13.66;64.26;98088.25;5188038;23;20276;-86
2023/10/01 05:07:10;;;;;;;5.97;4.45;;;;;;;13.66;63.94;98094.28;4829468;29;20686;-86
2023/10/01 05:09:36;;;;;;;8.95;5.13;;;;;;;13.59;64.76;98098.06;4844285;29;20231;-85
2023/10/01 05:12:03;;;;;;;7.60;4.65;;;;;;;13.50;64.30;98089.84;4856402;29;20253;-85
2023/10/01 05:14:29;;;;;;;7.68;5.72;;;;;;;13.60;64.13;98097.84;4836033;29;20264;-86
2023/10/01 05:16:54;;;;;;;7.95;4.60;;;;;;;13.50;64.85;98089.84;4858773;29;20188;-85
2023/10/01 05:19:23;;;;;;;7.45;4.75;;;;;;;13.45;64.96;98081.94;4852629;29;20240;-85
2023/10/01 05:21:49;;;;;;;7.88;5.15;;;;;;;13.58;64.74;98107.75;4841638;29;20643;-85
2023/10/01 05:24:34;;;;;;;8.20;5.25;;;;;;;13.74;63.91;98107.97;4856693;29;20212;-86
2023/10/01 05:27:00;;;;;;;7.25;4.57;;;;;;;13.59;64.13;98085.00;4823335;29;20648;-86
2023/10/01 05:29:26;;;;;;;7.47;4.65;;;;;;;13.77;64.08;98115.34;4850184;29;20762;-85
2023/10/01 05:31:51;;;;;;;6.10;4.15;;;;;;;13.75;64.43;98115.59;4857622;29;20271;-86
2023/10/01 05:34:19;;;;;;;6.80;4.68;;;;;;;13.73;63.88;98122.88;4857173;29;20207;-86
2023/10/01 05:36:44;;;;;;;7.00;4.38;;;;;;;13.74;63.27;98118.44;4841715;29;20192;-86
2023/10/01 05:39:11;;;;;;;6.68;4.60;;;;;;;13.68;63.79;98114.97;4842676;29;20280;-86
2023/10/01 05:41:38;;;;;;;5.85;4.40;;;;;;;13.66;63.54;98111.81;4835376;29;20384;-86
2023/10/01 05:44:04;;;;;;;6.65;4.40;;;;;;;13.78;63.69;98120.34;4831868;29;20209;-86
2023/10/01 05:46:30;;;;;;;7.63;4.50;;;;;;;13.76;63.94;98119.78;4854718;29;20202;-85
2023/10/01 05:48:57;;;;;;;7.63;4.45;;;;;;;13.79;63.96;98126.38;4841341;29;20255;-86
2023/10/01 05:51:31;;;;;;;6.75;4.65;;;;;;;13.80;63.79;98125.34;4844199;29;20238;-86
2023/10/01 05:54:03;;;;;;;7.38;4.43;;;;;;;13.88;63.96;98124.94;4830191;29;20244;-86
2023/10/01 05:56:36;;;;;;;6.28;4.45;;;;;;;13.82;64.37;98120.66;4837187;29;20196;-86
2023/10/01 05:59:03;;;;;;;6.72;4.40;;;;;;;13.90;63.94;98129.91;4846418;29;20193;-86
2023/10/01 06:01:32;;;;;;;7.57;4.65;;;;;;;13.97;63.50;98133.16;4817188;29;20295;-86
2023/10/01 07:14:14;;;;;;;7.80;4.55;;;;;;;16.04;62.12;98155.75;5654309;23;20555;-84
2023/10/01 07:16:39;;;;;;;8.40;5.00;;;;;;;16.18;61.29;98159.50;4841977;29;20216;-86
2023/10/01 07:19:11;;;;;;;7.30;4.95;;;;;;;16.30;61.34;98146.16;4842139;29;20653;-83
2023/10/01 07:21:39;;;;;;;8.48;4.97;;;;;;;16.40;61.70;98145.38;4821613;29;20193;-85
2023/10/01 07:24:10;;;;;;;7.07;5.03;;;;;;;16.57;60.88;98145.97;4857744;28;20228;-86
2023/10/01 07:26:40;;;;;;;5.93;4.43;;;;;;;16.80;60.94;98142.06;4830006;29;20227;-85
2023/10/01 07:29:08;;;;;;;7.35;4.95;;;;;;;16.85;61.36;98141.31;4842989;29;20303;-86
2023/10/01 07:31:37;;;;;;;6.85;5.00;;;;;;;16.98;60.57;98134.75;4846649;29;20224;-85
2023/10/01 07:34:12;;;;;;;7.65;5.38;;;;;;;17.22;60.71;98159.53;4841477;29;20709;-84
2023/10/01 07:36:44;;;;;;;6.53;4.68;;;;;;;17.29;60.25;98132.94;4828398;29;20179;-84
2023/10/01 07:39:12;;;;;;;8.50;5.47;;;;;;;17.60;59.82;98159.25;4870212;29;20189;-84
2023/10/01 07:41:39;;;;;;;8.25;4.85;;;;;;;17.59;60.18;98139.22;4846191;29;20150;-86
2023/10/01 07:44:08;;;;;;;6.82;4.78;;;;;;;17.94;58.93;98161.28;4841975;29;20251;-83
2023/10/01 07:46:36;;;;;;;7.68;4.57;;;;;;;18.13;58.49;98143.84;4859126;29;20705;-84
2023/10/01 07:49:03;;;;;;;8.00;4.78;;;;;;;18.34;58.75;98162.22;4852631;29;20686;-84
2023/10/01 07:51:35;;;;;;;8.15;5.65;;;;;;;18.48;58.22;98147.38;4826090;29;20296;-84
2023/10/01 07:54:02;;;;;;;9.80;5.93;;;;;;;18.76;57.49;98160.94;4823674;29;20684;-84
2023/10/01 07:56:28;;;;;;;9.07;5.75;;;;;;;18.95;57.03;98150.53;4855326;29;20208;-84
2023/10/01 07:58:57;;;;;;;9.23;5.38;;;;;;;19.25;56.38;98157.47;4837312;29;20177;-84
2023/10/01 08:01:37;;;;;;;8.40;5.32;;;;;;;19.43;56.13;98161.28;4856136;29;20683;-84
2023/10/01 08:04:06;;;;;;;7.05;4.70;;;;;;;19.70;54.63;98164.47;4839374;29;20665;-85
2023/10/01 08:06:41;;;;;;;6.50;4.90;;;;;;;19.92;54.31;98162.16;4836978;29;20200;-84
2023/10/01 08:09:11;;;;;;;9.00;5.10;;;;;;;20.09;53.59;98171.50;4816158;29;20209;-85
2023/10/01 08:11:58;;;;;;;7.88;5.13;;;;;;;20.13;54.07;98148.72;4850673;29;20213;-84
2023/10/01 08:14:27;;;;;;;6.78;5.10;;;;;;;20.50;53.08;98173.66;4841899;29;20405;-84
2023/10/01 08:16:56;;;;;;;7.57;4.68;;;;;;;20.49;53.38;98172.06;4841516;29;20208;-85
2023/10/01 08:19:22;;;;;;;7.72;5.15;;;;;;;20.62;53.08;98166.13;4837075;29;20201;-85
2023/10/01 08:21:54;;;;;;;8.00;5.05;;;;;;;20.91;52.35;98165.19;4822021;29;20212;-84
2023/10/01 08:24:20;;;;;;;7.32;5.00;;;;;;;20.97;52.17;98171.97;4817602;29;20639;-83
2023/10/01 08:27:01;;;;;;;7.05;4.82;;;;;;;21.20;52.02;98172.94;4834790;29;20279;-84
2023/10/01 08:32:11;;;;;;;9.15;5.43;;;;;;;21.50;50.29;98162.94;4837912;29;20211;-83
2023/10/01 08:37:31;;;;;;;8.02;5.70;;;;;;;21.67;50.42;98170.34;4862933;29;20253;-83
2023/10/01 08:39:56;;;;;;;;;;;;;;;21.96;50.23;98178.03;4853138;29;20237;-84
2023/10/01 08:42:28;;;;;;;8.23;5.15;;;;;;;21.81;50.47;98175.66;4859693;29;20164;-84
2023/10/01 08:45:04;;;;;;;6.97;4.10;;;;;;;21.88;49.89;98162.81;4852313;29;20295;-84
2023/10/01 08:47:32;;;;;;;7.57;4.70;;;;;;;22.07;49.51;98170.66;4849348;29;20167;-84
2023/10/01 09:00:49;;;;;;;6.82;4.78;;;;;;;21.88;50.49;98179.50;4846420;29;20207;-84
2023/10/01 09:03:26;;;;;;;6.95;4.40;;;;;;;21.99;49.73;98184.63;4862523;29;20277;-84
2023/10/01 09:06:06;;;;;;;7.10;4.45;;;;;;;21.83;49.86;98174.31;4864001;29;20264;-83
2023/10/01 09:08:33;;;;;;;6.45;4.47;;;;;;;21.93;50.77;98178.63;4865052;29;20332;-85
2023/10/01 09:11:00;;;;;;;8.40;4.85;;;;;;;21.81;50.99;98175.66;4836406;29;20760;-83
2023/10/01 09:13:28;;;;;;;8.50;5.00;;;;;;;21.77;51.20;98180.00;4830032;29;20186;-85
2023/10/01 09:16:08;;;;;;;7.22;4.80;;;;;;;21.96;50.38;98170.06;4849860;29;20180;-84
2023/10/01 09:18:37;;;;;;;6.95;4.63;;;;;;;22.07;49.84;98176.78;4841896;29;20356;-85
2023/10/01 09:21:28;;;;;;;5.97;4.05;;;;;;;22.40;48.68;98179.31;4831449;28;20273;-86
2023/10/01 09:23:56;;;;;;;7.50;4.88;;;;;;;22.55;47.45;98166.81;4841649;29;20758;-85
2023/10/01 09:26:39;;;;;;;6.50;4.35;;;;;;;22.72;47.46;98169.63;4844085;29;20208;-85
2023/10/01 09:29:25;;;;;;;7.28;4.55;;;;;;;22.70;47.79;98160.38;4848851;29;20777;-85
2023/10/01 09:31:57;;;;;;;8.02;4.68;;;;;;;23.10;45.83;98163.22;4835663;29;20672;-85
2023/10/01 09:34:34;;;;;;;8.55;4.35;;;;;;;23.09;46.32;98151.03;4840196;29;20257;-85
2023/10/01 09:37:06;;;;;;;7.00;4.40;;;;;;;23.19;45.14;98151.56;4842006;29;20249;-85
2023/10/01 09:39:38;;;;;;;5.93;4.50;;;;;;;23.40;44.38;98155.59;4834369;29;20271;-85
2023/10/01 09:42:22;;;;;;;6.30;4.43;;;;;;;23.51;43.64;98146.25;4840123;29;20263;-85
2023/10/01 09:44:50;;;;;;;8.48;5.53;;;;;;;23.65;43.56;98154.19;4847788;29;20104;-86
2023/10/01 09:47:16;;;;;;;7.30;4.95;;;;;;;23.68;42.69;98145.56;4841788;29;20247;-86
2023/10/01 09:49:47;;;;;;;8.23;5.30;;;;;;;23.99;41.99;98150.09;4843608;29;20252;-85
2023/10/01 09:52:26;;;;;;;9.43;5.10;;;;;;;24.11;42.37;98158.25;4843433;29;20148;-85
2023/10/01 09:55:29;;;;;;;8.98;5.18;;;;;;;24.27;42.32;98158.63;4843004;29;20637;-86
2023/10/01 09:57:55;;;;;;;7.65;4.70;;;;;;;24.46;40.39;98137.06;4857686;29;20592;-85
2023/10/01 10:00:21;;;;;;;8.25;4.95;;;;;;;24.68;39.92;98144.16;4844582;29;20229;-86
2023/10/01 10:02:51;;;;;;;7.95;5.18;;;;;;;24.87;41.03;98138.50;4849801;29;20167;-85
2023/10/01 10:05:26;;;;;;;6.53;4.65;;;;;;;25.08;39.15;98151.94;4835549;29;20363;-85
2023/10/01 10:08:13;;;;;;;8.32;4.65;;;;;;;25.15;39.24;98141.59;4823546;29;20213;-86
2023/10/01 10:10:48;;;;;;;9.80;5.10;;;;;;;25.29;40.05;98143.31;4827547;29;20292;-85
2023/10/01 10:13:38;;;;;;;8.82;4.97;;;;;;;25.24;39.39;98144.22;4843325;29;20185;-86
2023/10/01 10:16:30;;;;;;;9.25;5.50;;;;;;;25.38;39.02;98147.53;4844969;29;20192;-85
2023/10/01 10:19:09;;;;;;;8.98;5.70;;;;;;;25.66;38.36;98146.34;4839316;29;20256;-86
2023/10/01 10:22:05;;;;;;;7.63;4.65;;;;;;;25.77;38.52;98142.22;4852159;29;20256;-85
2023/10/01 10:24:34;;;;;;;7.45;4.50;;;;;;;25.80;38.23;98144.25;4854111;29;20243;-86
2023/10/01 10:27:03;;;;;;;7.53;4.78;;;;;;;25.81;39.24;98135.16;4827047;29;20773;-86
2023/10/01 10:29:47;;;;;;;7.00;4.72;;;;;;;26.10;39.41;98141.63;4841680;29;20285;-86
2023/10/01 10:32:16;;;;;;;7.50;4.55;;;;;;;25.95;39.48;98141.06;4842627;29;20192;-86
2023/10/01 10:35:03;;;;;;;8.10;5.10;;;;;;;26.08;38.50;98144.63;4838821;29;20263;-86
2023/10/01 10:37:38;;;;;;;7.50;4.97;;;;;;;26.09;40.01;98142.72;4858965;29;20188;-86
2023/10/01 10:43:07;;;;;;;9.77;5.63;;;;;;;26.73;37.32;98141.69;4841692;29;20178;-86
2023/10/01 10:45:48;;;;;;;9.02;5.05;;;;;;;26.74;37.18;98131.78;4862165;29;20569;-85
2023/10/01 10:48:16;;;;;;;9.30;5.25;;;;;;;26.50;38.27;98133.19;4848093;29;20691;-86
2023/10/01 10:50:49;;;;;;;8.88;5.63;;;;;;;26.35;38.36;98132.66;4845661;29;20682;-86
2023/10/01 10:53:39;;;;;;;6.70;4.75;;;;;;;26.71;38.43;98115.28;4847472;29;20664;-85
2023/10/01 10:56:07;;;;;;;9.02;5.25;;;;;;;27.01;37.13;98128.56;4850278;29;20098;-86
2023/10/01 10:58:53;;;;;;;8.48;5.65;;;;;;;27.68;36.30;98136.50;4830564;29;20418;-86
2023/10/01 11:01:19;;;;;;;6.97;4.85;;;;;;;27.53;37.13;98126.47;4817785;29;20237;-86
2023/10/01 11:03:57;;;;;;;8.02;5.00;;;;;;;27.68;37.14;98115.09;4828687;29;20196;-86
2023/10/01 11:06:29;;;;;;;8.50;5.18;;;;;;;28.10;36.12;98119.47;4851127;29;20368;-86
2023/10/01 11:08:55;;;;;;;8.10;4.95;;;;;;;28.14;35.16;98098.94;4824874;29;20385;-86
2023/10/01 11:11:40;;;;;;;7.43;4.93;;;;;;;28.49;35.59;98111.78;4826415;29;20086;-86
2023/10/01 11:14:12;;;;;;;;;;;;;;;28.89;34.92;98125.19;4816981;29;20199;-86
2023/10/01 11:16:40;;;;;;;6.68;5.10;;;;;;;28.77;35.22;98125.22;4821297;29;20427;-86
2023/10/01 11:19:13;;;;;;;7.90;5.15;;;;;;;29.34;33.18;98109.88;4835867;29;20086;-86
2023/10/01 11:21:55;;;;;;;7.13;5.18;;;;;;;29.59;33.22;98123.13;4833164;29;20290;-85
2023/10/01 11:24:31;;;;;;;8.40;6.10;;;;;;;29.76;32.03;98116.59;4836945;29;20277;-86
2023/10/01 11:30:16;;;;;;;8.52;5.43;;;;;;;30.17;33.75;98101.81;4828699;29;20272;-86
2023/10/01 11:36:09;;;;;;;8.60;5.85;;;;;;;30.54;30.94;98108.75;4843288;29;20623;-86
2023/10/01 11:38:38;;;;;;;7.53;5.28;;;;;;;30.55;31.49;98099.53;4840477;29;20273;-85
2023/10/01 11:41:08;;;;;;;7.38;5.97;;;;;;;30.27;31.53;98083.59;4848706;29;20173;-85
2023/10/01 11:43:36;;;;;;;9.60;6.28;;;;;;;30.82;32.43;98105.81;4811894;29;20614;-86
2023/10/01 11:46:34;;;;;;;9.35;5.93;;;;;;;31.40;30.21;98104.94;4850875;29;20199;-86
2023/10/01 11:49:14;;;;;;;7.85;6.25;;;;;;;31.15;31.35;98091.06;4857288;29;20224;-86
2023/10/01 11:52:02;;;;;;;6.90;6.10;;;;;;;31.15;30.85;98085.69;4850437;29;20288;-87
2023/10/01 11:54:44;;;;;;;7.65;5.80;;;;;;;31.28;30.63;98087.06;4837651;29;20303;-85
2023/10/01 11:57:22;;;;;;;7.47;6.15;;;;;;;31.06;30.81;98083.22;4853531;29;20264;-86
2023/10/01 11:59:54;;;;;;;10.10;7.55;;;;;;;31.03;30.47;98078.56;4848650;29;20169;-87
2023/10/01 12:02:33;;;;;;;8.63;6.60;;;;;;;31.61;29.65;98077.59;4830854;29;20606;-87
2023/10/01 12:05:07;;;;;;;7.60;6.40;;;;;;;31.55;29.77;98070.97;4845979;29;20384;-86
2023/10/01 12:07:39;;;;;;;8.00;6.20;;;;;;;31.43;29.35;98081.88;4834785;29;20354;-87
2023/10/01 12:10:07;;;;;;;7.18;6.43;;;;;;;31.63;29.16;98063.78;4848042;29;20564;-86
2023/10/01 12:12:37;;;;;;;10.23;6.57;;;;;;;31.27;29.31;98068.56;4840152;29;20640;-87
2023/10/01 12:17:54;;;;;;;7.93;6.50;;;;;;;31.92;29.32;98060.31;4853090;29;20289;-86
2023/10/01 12:20:23;;;;;;;8.98;6.82;;;;;;;32.56;29.00;98059.59;4823626;29;20348;-86
2023/10/01 12:23:10;;;;;;;;;;;;;;;;;;;;;
2023/10/01 12:28:29;;;;;;;9.65;7.43;;;;;;;31.88;28.61;98050.66;4851206;29;20565;-87
2023/10/01 12:30:57;;;;;;;9.32;7.22;;;;;;;31.03;29.48;98054.34;4869614;29;20188;-86
2023/10/01 12:33:38;;;;;;;10.18;7.60;;;;;;;30.02;31.99;98041.66;4852588;29;20229;-85
2023/10/01 12:39:03;;;;;;;9.70;7.00;;;;;;;28.81;34.89;98047.59;4857309;29;20141;-86
2023/10/01 12:41:29;;;;;;;12.95;8.65;;;;;;;28.19;36.77;98050.50;4857185;29;20191;-86
2023/10/01 12:44:14;;;;;;;11.93;7.78;;;;;;;27.79;35.97;98041.28;4857969;29;20294;-85
2023/10/01 12:46:51;;;;;;;8.88;7.30;;;;;;;27.63;35.23;98022.47;4843202;29;20062;-85
2023/10/01 12:49:17;;;;;;;10.05;7.38;;;;;;;27.50;35.76;98046.88;4849782;29;20212;-86
2023/10/01 12:51:48;;;;;;;10.18;7.07;;;;;;;27.18;35.99;98039.38;4840541;29;20118;-85
2023/10/01 12:54:18;;;;;;;10.80;7.60;;;;;;;27.16;37.11;98017.53;4855782;29;20212;-86
2023/10/01 12:57:03;;;;;;;11.35;8.02;;;;;;;26.97;36.63;98038.66;4851274;29;20204;-85
2023/10/01 12:59:41;;;;;;;10.73;7.05;;;;;;;26.66;37.22;98029.22;4850706;29;20162;-84
2023/10/01 13:07:41;;;;;;;10.68;7.28;;;;;;;26.27;38.08;98029.41;4846850;29;20244;-87
2023/10/01 13:10:07;;;;;;;9.38;6.53;;;;;;;26.23;38.95;98031.13;4841416;29;20769;-86
2023/10/01 13:13:20;;;;;;;11.10;7.78;;;;;;;26.20;39.58;98013.13;4829974;29;20315;-86
2023/10/01 13:15:29;;;;;;;12.32;7.43;;;;;;;26.34;37.95;98024.31;4844179;29;20292;-86
2023/10/01 13:18:00;;;;;;;13.00;7.85;;;;;;;26.24;37.72;98015.91;4851451;28;20188;-86
2023/10/01 13:20:28;;;;;;;12.65;7.25;;;;;;;26.25;39.19;98012.94;4847508;29;20787;-87
2023/10/01 13:23:05;;;;;;;10.38;7.32;;;;;;;26.34;36.28;98018.97;4838018;29;20193;-86
2023/10/01 13:25:31;;;;;;;12.27;7.90;;;;;;;26.34;36.17;98015.53;4817755;29;20349;-87
2023/10/01 13:28:04;;;;;;;11.45;8.10;;;;;;;26.16;38.09;97986.28;4837756;29;20212;-86
2023/10/01 13:30:30;;;;;;;13.65;7.90;;;;;;;26.41;38.10;98009.63;4848576;29;20209;-86
2023/10/01 13:33:14;;;;;;;13.23;7.72;;;;;;;26.48;38.80;98017.91;4822682;29;20192;-85
2023/10/01 13:35:52;;;;;;;12.45;7.57;;;;;;;26.43;38.49;98004.75;4830470;29;20232;-86
2023/10/01 13:38:27;;;;;;;11.65;7.90;;;;;;;26.35;38.22;98001.81;4851039;29;20232;-85
2023/10/01 14:11:06;;;;;;;11.85;7.43;;;;;;;26.46;37.52;97961.34;4839785;29;20204;-85
2023/10/01 14:13:35;;;;;;;12.23;7.68;;;;;;;26.47;36.98;97963.69;4852683;28;20279;-86
2023/10/01 14:16:17;;;;;;;9.65;6.47;;;;;;;26.56;38.08;97960.94;4854176;29;20169;-85
2023/10/01 14:18:54;;;;;;;10.73;7.47;;;;;;;26.21;39.90;97963.94;4827713;29;20259;-86
2023/10/01 14:21:21;;;;;;;12.30;7.43;;;;;;;26.14;40.97;97940.47;4820974;29;20208;-85
2023/10/01 14:23:46;;;;;;;9.50;6.97;;;;;;;26.25;39.76;97953.41;4855214;29;20692;-85
2023/10/01 14:26:18;;;;;;;10.88;6.60;;;;;;;25.90;41.03;97959.00;4835002;29;20180;-86
2023/10/01 14:28:46;;;;;;;11.18;6.70;;;;;;;26.02;41.12;97958.31;4843657;29;20287;-86
2023/10/01 14:31:13;;;;;;;11.13;6.80;;;;;;;25.93;41.93;97947.69;4834426;29;20195;-86
2023/10/01 14:33:45;;;;;;;9.95;6.45;;;;;;;25.90;41.94;97954.44;4839117;29;20275;-86
2023/10/01 14:36:11;;;;;;;10.57;7.30;;;;;;;25.66;41.70;97952.44;4840424;29;20279;-86
2023/10/01 14:38:41;;;;;;;10.32;6.55;;;;;;;25.61;40.61;97944.63;4837127;29;20218;-86
2023/10/01 14:41:17;;;;;;;10.60;7.55;;;;;;;25.93;39.54;97937.03;4836585;29;20272;-86
2023/10/01 14:43:49;;;;;;;10.15;6.75;;;;;;;25.92;38.98;97924.78;4837155;29;20146;-86
2023/10/01 14:46:30;;;;;;;10.15;6.50;;;;;;;26.08;39.09;97940.97;4836548;29;20208;-86
2023/10/01 14:49:05;;;;;;;12.10;7.35;;;;;;;26.05;38.87;97942.44;4821361;29;20641;-86
2023/10/01 14:51:32;;;;;;;10.77;7.00;;;;;;;26.13;38.90;97948.78;4839465;29;20240;-86
2023/10/01 14:53:58;;;;;;;11.48;7.13;;;;;;;25.97;40.79;97949.38;4857384;29;20207;-86
2023/10/01 14:56:24;;;;;;;11.27;7.00;;;;;;;25.93;41.71;97948.47;4835593;29;20632;-86
2023/10/01 14:58:51;;;;;;;11.00;6.70;;;;;;;25.88;41.71;97943.31;4836157;29;20200;-86
2023/10/01 15:01:20;;;;;;;10.48;6.60;;;;;;;26.03;40.50;97951.84;4820978;29;20714;-86
2023/10/01 15:03:53;;;;;;;16.25;6.60;;;;;;;25.95;40.63;97950.84;4825689;29;20110;-86
2023/10/01 15:06:19;;;;;;;11.13;6.53;;;;;;;25.94;40.71;97944.72;4836978;29;20291;-86
2023/10/01 15:08:45;;;;;;;11.27;6.40;;;;;;;25.94;40.93;97941.22;4849088;29;20174;-86
2023/10/01 15:11:14;;;;;;;11.60;6.80;;;;;;;26.00;39.60;97949.88;4817122;29;20314;-85
2023/10/01 15:13:44;;;;;;;10.70;6.25;;;;;;;26.05;39.67;97941.66;4853357;28;20187;-86
2023/10/01 15:16:14;;;;;;;9.88;6.53;;;;;;;25.96;40.01;97929.16;4849581;29;20200;-86
2023/10/01 15:18:41;;;;;;;9.88;6.97;;;;;;;25.98;40.28;97934.19;4819300;29;20196;-86
2023/10/01 15:21:17;;;;;;;9.93;6.15;;;;;;;25.92;41.31;97954.13;4847070;29;20531;-87
2023/10/01 15:23:44;;;;;;;10.88;6.97;;;;;;;25.94;41.13;97947.41;4825544;29;20173;-86
2023/10/01 15:26:20;;;;;;;13.23;6.50;;;;;;;25.84;41.88;97937.09;4850744;29;20031;-86
2023/10/01 15:28:52;;;;;;;10.30;6.25;;;;;;;25.68;41.97;97944.09;4824910;29;20259;-86
2023/10/01 15:31:30;;;;;;;9.70;6.20;;;;;;;25.62;42.76;97943.53;4841415;29;20696;-86
2023/10/01 15:34:15;;;;;;;9.40;6.32;;;;;;;25.64;42.94;97937.88;4860409;29;20695;-86